Database: COMPET-N - COOP - 3PL - 4PL - CNDOOM

WAD: Doom | Doom 2 | TNT | Plutonia | AV | HR | Scythe | MM | MM2 | Requiem | CE
Category: speed | nmare | max | nm100s | tyson | pacifist | fast | respawn | nomo | misc | built | all
Highscore: ALL | IWAD | PWAD | Country | Continent

< Previous map       Next map >
Remove: wad | map | category | player | allMAP10
MapPlayerTimeDateFilenameCommentsDL
MAP10: RedemptionRadek Pecka57.002003-03-02ev10-057.zip - 196
MAP10: RedemptionJim Leonard58.002003-02-26ev10-058.zip - 168
MAP10: RedemptionRadek Pecka1:00.002003-02-18ev10-100.zip - 135
MAP10: RedemptionJim Leonard1:02.002002-09-08ev10-102.zip - 185
MAP10: RedemptionDrew DeVore1:03.002001-10-07ev10-103.zip - 125
MAP10: RedemptionVincent Catalaa1:08.002001-09-06ev10-108.zip - 137
MAP10: RedemptionSelim Benabdelkhalek1:18.002000-03-02ev10-118.zip - 106
MAP10: RedemptionVincent Catalaa1:19.001998-09-05ev10-119.zip - 113
MAP10: RedemptionDaniel Lindgren1:23.001996-11-14ev10-123.zip - 109
MAP10: RedemptionJim Leonard2:00.002002-09-11es10-200.zip - 225
MAP10: RedemptionJim Leonard2:23.002001-10-20tn10-223.zip - 183
MAP10: RedemptionVincent Catalaa2:31.002000-02-25tn10-231.zip - 132
MAP10: RedemptionIstvan Pataki4:31.001997-04-25ev10-nm.zip - 125
MAP10: RedemptionJustin Baliao2:28.372016-11-24ev10-228.zip - 277
MAP10: RedemptionRadek Pecka2:39.002001-03-30ev10-239.zip - 136
MAP10: RedemptionYashar Garibzadeh2:48.002001-01-29ev10-248.zip - 127
MAP10: RedemptionArno Slagboom2:55.002000-06-17ev10-255.zip - 105
MAP10: RedemptionDaniel Lindgren3:00.001996-11-14ev10-300.zip - 180
MAP10: RedemptionYonatan Donner4:13.001996-11-07ev10-413.zip - 98
MAP10: RedemptionKai-Uwe Humpert5:18.001996-10-17ev10-518.zip - 80
MAP10: RedemptionJim Leonard2:00.002002-09-11es10-200.zip - 239
MAP10: RedemptionJim Leonard3:13.002001-10-20es10-313.zip - 174
MAP10: RedemptionJ4rio 18:12.002013-02-13et101812.zip - 245
MAP10: RedemptionJim Leonard33:44.002004-12-10et103344.zip - 191
MAP10: RedemptionJim Leonard8:13.002008-03-04ep10-813.zip - 254
MAP10: RedemptionJustin Baliao2:52.542016-12-01ef10-252.zip - 353
MAP10: RedemptionJustin Baliao2:55.942016-11-06ef10-255.zip - 238
MAP10: RedemptionRadek Pecka3:29.002003-02-26ef10-329.zip - 140
MAP10: RedemptionJim Leonard3:34.002002-08-03ef10-334.zip - 181
MAP10: RedemptionChris Ratcliff3:50.002001-09-01ef10-350.zip - 123
MAP10: RedemptionYonatan Donner6:03.001996-11-14tnt10-gm.zip - 102
MAP10: RedemptionRadek Pecka1:57.002003-02-26er10-157.zip - 215
MAP10: RedemptionJim Leonard2:00.002002-07-31er10-200.zip - 182
MAP10: RedemptionChris Ratcliff2:30.002001-09-19er10-230.zip - 146
Remove: wad | map | category | player | all